Uni-arise — 3FSV7 — position and weather

sailwx.info

Track history (hours):
 
Tides and Currents Weather Stations Pressure Air Temp Water Temp Dewpoint Dewpoint Depression Visibility Wind Speed Wind Dir Waves Ship Positions

Uni-arise

Last reported at 2016-Dec-01 18:15 UTC. Time now 2016-Dec-03 19:41 UTC.
Position N 33°57' E 134°56'.

Length 165 m; draft 6.7 m.

Type: Ship (hazmat cat D). MMSI: 351608000.

Date/timePositionNaut miles runAvg speedWind from/ knotsBaromVisibWave heightAir tempDewpointWater temp
2016-Dec-01 18:15N 33°57' E 134°56'1013.7
2016-Dec-01 17:33N 34°06' E 134°56'1616.0
2016-Dec-01 16:33N 34°22' E 135°00'1717.3
2016-Dec-01 15:33N 34°35' E 135°15'5 5.1
2016-Dec-01 14:30N 34°40' E 135°14'0 0.0
2016-Dec-01 13:30N 34°40' E 135°14'0 0.0
2016-Dec-01 12:30N 34°40' E 135°14'0 0.0
2016-Dec-01 11:30N 34°40' E 135°14'0 0.0
2016-Dec-01 10:30N 34°40' E 135°14'0 0.0
2016-Dec-01 09:30N 34°40' E 135°14'4 3.9
2016-Dec-01 08:33N 34°37' E 135°17'6 5.0
2016-Dec-01 07:25N 34°39' E 135°24'0 0.0
2016-Dec-01 06:31N 34°39' E 135°24'0 0.0
2016-Dec-01 05:25N 34°39' E 135°24'0 0.0
2016-Dec-01 04:19N 34°39' E 135°24'0 0.0
2016-Dec-01 03:25N 34°39' E 135°24'0 0.0
2016-Dec-01 02:07N 34°39' E 135°24'0 0.0
2016-Dec-01 01:25N 34°39' E 135°24'0 0.0
2016-Dec-01 00:31N 34°39' E 135°24'9 8.9
2016-Nov-30 23:33N 34°34' E 135°16'1313.3
2016-Nov-30 22:33N 34°23' E 135°06'1414.4
2016-Nov-30 21:33N 34°10' E 134°59'4 4.0
2016-Nov-30 20:33N 34°06' E 134°59'  
2016-Nov-26 15:33N 22°53' E 119°58'1414.2
2016-Nov-26 14:34N 22°40' E 120°05'1312.9
2016-Nov-26 13:33N 22°33' E 120°17'2 2.1
2016-Nov-26 12:28N 22°35' E 120°18'0 0.0
2016-Nov-26 11:22N 22°35' E 120°18'0 0.0
2016-Nov-26 10:22N 22°35' E 120°18'0 0.0
2016-Nov-26 09:28N 22°35' E 120°18'0 0.0
2016-Nov-26 08:16N 22°35' E 120°18'0 0.0
2016-Nov-26 07:28N 22°35' E 120°18'0 0.0
2016-Nov-26 06:22N 22°35' E 120°18'0 0.0
2016-Nov-26 05:28N 22°35' E 120°18'0 0.0
2016-Nov-26 04:28N 22°35' E 120°18'0 0.0
2016-Nov-26 03:16N 22°35' E 120°18'0 0.0
2016-Nov-26 02:22N 22°35' E 120°18'0 0.0
2016-Nov-26 01:28N 22°35' E 120°18'2 1.8
2016-Nov-26 00:33N 22°33' E 120°19'6 6.3
2016-Nov-25 23:33N 22°31' E 120°13'0 0.5
2016-Nov-25 22:33N 22°30' E 120°12'33912.1
2016-Nov-24 18:32N 22°19' E 114°06'2 1.4
2016-Nov-24 17:09N 22°20' E 114°08'0 0.0
2016-Nov-24 01:17N 22°20' E 114°08'  
Track history (hours):
 
Tides and Currents Weather Stations Pressure Air Temp Water Temp Dewpoint Dewpoint Depression Visibility Wind Speed Wind Dir Waves Ship Positions

Uni-arise

Last reported at 2016-Dec-01 18:15 UTC. Time now 2016-Dec-03 19:41 UTC.
Position N 33°57' E 134°56'.

Length 165 m; draft 6.7 m.

Type: Ship (hazmat cat D). MMSI: 351608000.

Date/timePositionNaut miles runAvg speedWind from/ knotsBaromVisibWave heightAir tempDewpointWater temp
2016-Dec-01 18:15N 33°57' E 134°56'1013.7
2016-Dec-01 17:33N 34°06' E 134°56'1616.0
2016-Dec-01 16:33N 34°22' E 135°00'1717.3
2016-Dec-01 15:33N 34°35' E 135°15'5 5.1
2016-Dec-01 14:30N 34°40' E 135°14'0 0.0
2016-Dec-01 13:30N 34°40' E 135°14'0 0.0
2016-Dec-01 12:30N 34°40' E 135°14'0 0.0
2016-Dec-01 11:30N 34°40' E 135°14'0 0.0
2016-Dec-01 10:30N 34°40' E 135°14'0 0.0
2016-Dec-01 09:30N 34°40' E 135°14'4 3.9
2016-Dec-01 08:33N 34°37' E 135°17'6 5.0
2016-Dec-01 07:25N 34°39' E 135°24'0 0.0
2016-Dec-01 06:31N 34°39' E 135°24'0 0.0
2016-Dec-01 05:25N 34°39' E 135°24'0 0.0
2016-Dec-01 04:19N 34°39' E 135°24'0 0.0
2016-Dec-01 03:25N 34°39' E 135°24'0 0.0
2016-Dec-01 02:07N 34°39' E 135°24'0 0.0
2016-Dec-01 01:25N 34°39' E 135°24'0 0.0
2016-Dec-01 00:31N 34°39' E 135°24'9 8.9
2016-Nov-30 23:33N 34°34' E 135°16'1313.3
2016-Nov-30 22:33N 34°23' E 135°06'1414.4
2016-Nov-30 21:33N 34°10' E 134°59'4 4.0
2016-Nov-30 20:33N 34°06' E 134°59'  
2016-Nov-26 15:33N 22°53' E 119°58'1414.2
2016-Nov-26 14:34N 22°40' E 120°05'1312.9
2016-Nov-26 13:33N 22°33' E 120°17'2 2.1
2016-Nov-26 12:28N 22°35' E 120°18'0 0.0
2016-Nov-26 11:22N 22°35' E 120°18'0 0.0
2016-Nov-26 10:22N 22°35' E 120°18'0 0.0
2016-Nov-26 09:28N 22°35' E 120°18'0 0.0
2016-Nov-26 08:16N 22°35' E 120°18'0 0.0
2016-Nov-26 07:28N 22°35' E 120°18'0 0.0
2016-Nov-26 06:22N 22°35' E 120°18'0 0.0
2016-Nov-26 05:28N 22°35' E 120°18'0 0.0
2016-Nov-26 04:28N 22°35' E 120°18'0 0.0
2016-Nov-26 03:16N 22°35' E 120°18'0 0.0
2016-Nov-26 02:22N 22°35' E 120°18'0 0.0
2016-Nov-26 01:28N 22°35' E 120°18'2 1.8
2016-Nov-26 00:33N 22°33' E 120°19'6 6.3
2016-Nov-25 23:33N 22°31' E 120°13'0 0.5
2016-Nov-25 22:33N 22°30' E 120°12'33912.1
2016-Nov-24 18:32N 22°19' E 114°06'2 1.4
2016-Nov-24 17:09N 22°20' E 114°08'0 0.0
2016-Nov-24 01:17N 22°20' E 114°08'  

Dump ship's entire track history